首页
METAR-TAF:

METAR-TAF

机场 :

烏拉爾, 哈萨克斯坦

纬度: 51-15N, 经度: 051-17E, 海拔: 36米

当前天气观测

该预报发布于39分钟前的21:00 UTC
风速6节,风向北转西北
温度 14°C
湿度 88%
气压 1011 hPa
能见度10公里或以上
少量云层高于5000英尺, 积雨云.
散云层高于10000英尺

METAR: UARR 192100Z 34003MPS 9999 FEW050CB SCT100 14/12 Q1011 R04/CLRD70 NOSIG RMK QFE755/1006

时间: 02:39 (21:39 UTC)

预报

该预报发布于1小时和39分钟前的20:00 UTC
预报有效从19日的 21点(UTC)到 20日的 06点(UTC)
风速4节,风向多变
能见度10公里或以上
散云层高于3300英尺, 积雨云.
短暂存在
从 20日的 00点(UTC)到 20日的 04点(UTC)
能見度: 5000
散云层高于1100英尺
轻雾

TAF: UARR 192000Z 1921/2006 VRB02MPS 9999 SCT033CB TEMPO 2000/2004 5000 BR SCT011

超过4000个机场的气象观测和天气预报(METAR&TAF报告)。

可查询的气象台以黄色和红色小点在地图上表示。

将鼠标移到小点上方,可查看气象台名称。

然后点击查看天气观测和预报。

如需切换地图:点击带黑十字的绿色按钮放大地图;点击带横线的绿色按钮缩小地图;或者点击绿色箭头查看邻近地区的地图。


METAR-TAF: